No.3tokuyomaru — JD3132 — position and weather

sailwx.info

Track history (hours):
 
Tides and Currents Weather Stations Pressure Air Temp Water Temp Dewpoint Dewpoint Depression Visibility Wind Speed Wind Dir Waves Ship Positions

No.3tokuyomaru

Last reported at 2017-Jun-19 01:24 UTC. Time now 2017-Jun-25 00:23 UTC.
Position N 35°17' E 139°45'.

Length 67 m; draft 4 m.

Type: Tanker. MMSI: 431002151.

Date/timePositionNaut miles runAvg speedWind from/ knotsBaromVisibWave heightAir tempDewpointWater temp
2017-Jun-19 01:24N 35°17' E 139°45'512.5
2017-Jun-19 01:00N 35°22' E 139°42'612.0
2017-Jun-19 00:30N 35°27' E 139°47'3 6.5
2017-Jun-19 00:00N 35°29' E 139°49'0 0.1
2017-Jun-18 23:28N 35°29' E 139°49'0 0.0
2017-Jun-18 22:58N 35°29' E 139°49'0 0.0
2017-Jun-18 22:28N 35°29' E 139°49'0 0.1
2017-Jun-18 21:58N 35°29' E 139°49'0 0.1
2017-Jun-18 21:28N 35°29' E 139°49'0 0.0
2017-Jun-18 20:58N 35°29' E 139°49'0 0.0
2017-Jun-18 20:25N 35°29' E 139°49'0 0.0
2017-Jun-18 19:55N 35°29' E 139°49'0 0.0
2017-Jun-18 19:22N 35°29' E 139°49'0 0.0
2017-Jun-18 18:58N 35°29' E 139°49'0 0.0
2017-Jun-18 18:28N 35°29' E 139°49'0 0.0
2017-Jun-18 17:58N 35°29' E 139°49'0 0.0
2017-Jun-18 17:28N 35°29' E 139°49'0 0.0
2017-Jun-18 16:58N 35°29' E 139°49'0 0.0
2017-Jun-18 16:28N 35°29' E 139°49'0 0.0
2017-Jun-18 15:58N 35°29' E 139°49'0 0.0
2017-Jun-18 15:28N 35°29' E 139°49'0 0.0
2017-Jun-18 14:58N 35°29' E 139°49'0 0.0
2017-Jun-18 13:58N 35°29' E 139°49'0 0.0
2017-Jun-18 13:25N 35°29' E 139°49'0 0.0
2017-Jun-18 12:55N 35°29' E 139°49'0 0.0
2017-Jun-18 12:28N 35°29' E 139°49'0 0.0
2017-Jun-18 11:46N 35°29' E 139°49'0 0.0
2017-Jun-18 11:28N 35°29' E 139°49'0 0.1
2017-Jun-18 10:56N 35°29' E 139°49'3 7.1
2017-Jun-18 10:30N 35°30' E 139°53'3 0.4
2017-Jun-18 03:13N 35°31' E 139°56'310.4
2017-Jun-18 02:53N 35°30' E 139°52'2 5.5
2017-Jun-18 02:29N 35°29' E 139°49'0 0.0
2017-Jun-18 01:59N 35°29' E 139°49'0 0.0
2017-Jun-18 01:29N 35°29' E 139°49'0 0.0
2017-Jun-18 00:59N 35°29' E 139°49'0 0.0
2017-Jun-18 00:29N 35°29' E 139°49'0 0.0
2017-Jun-17 23:59N 35°29' E 139°49'0 0.0
2017-Jun-17 23:29N 35°29' E 139°49'0 0.0
2017-Jun-17 22:59N 35°29' E 139°49'0 0.0
2017-Jun-17 22:29N 35°29' E 139°49'0 0.0
2017-Jun-17 21:59N 35°29' E 139°49'0 0.0
2017-Jun-17 21:29N 35°29' E 139°49'0 0.0
2017-Jun-17 20:59N 35°29' E 139°49'0 0.0
2017-Jun-17 20:29N 35°29' E 139°49'0 0.0
2017-Jun-17 19:59N 35°29' E 139°49'0 0.0
2017-Jun-17 19:29N 35°29' E 139°49'0 0.0
2017-Jun-17 18:59N 35°29' E 139°49'0 0.0
2017-Jun-17 18:29N 35°29' E 139°49'0 0.0
2017-Jun-17 17:56N 35°29' E 139°49'0 0.0
2017-Jun-17 17:29N 35°29' E 139°49'0 0.0
2017-Jun-17 16:59N 35°29' E 139°49'0 0.0
2017-Jun-17 16:29N 35°29' E 139°49'0 0.0
2017-Jun-17 15:59N 35°29' E 139°49'0 0.0
2017-Jun-17 15:29N 35°29' E 139°49'0 0.0
2017-Jun-17 14:59N 35°29' E 139°49'0 0.0
2017-Jun-17 14:29N 35°29' E 139°49'5 4.7
2017-Jun-17 13:31N 35°25' E 139°47'612.3
2017-Jun-17 13:01N 35°19' E 139°44'612.1
2017-Jun-17 12:30N 35°14' E 139°47'24510.2
2017-Jun-16 12:28N 34°09' E 134°59'1813.4
2017-Jun-16 11:08N 34°26' E 135°01'212.5
2017-Jun-16 11:00N 34°28' E 135°01'612.6
2017-Jun-16 10:30N 34°34' E 135°03'711.4
2017-Jun-16 09:56N 34°37' E 134°55'3 0.1
2017-Jun-15 06:04N 34°38' E 134°58'211.0
2017-Jun-15 05:51N 34°37' E 135°01'411.5
2017-Jun-15 05:29N 34°35' E 135°05'234 8.9
2017-Jun-14 03:07N 35°13' E 139°46'412.8
2017-Jun-14 02:50N 35°17' E 139°45'413.4
2017-Jun-14 02:30N 35°20' E 139°42'612.8
2017-Jun-14 02:00N 35°26' E 139°45'5 9.2
2017-Jun-14 01:30N 35°31' E 139°46'0 0.0
2017-Jun-13 22:16N 35°31' E 139°46'0 1.1
2017-Jun-13 22:01N 35°31' E 139°47'3 5.5
2017-Jun-13 21:30N 35°29' E 139°49'0 0.0
2017-Jun-13 20:57N 35°29' E 139°49'0 0.0
2017-Jun-13 20:30N 35°29' E 139°49'0 0.0
2017-Jun-13 20:00N 35°29' E 139°49'0 0.0
2017-Jun-13 19:30N 35°29' E 139°49'0 0.0
2017-Jun-13 18:57N 35°29' E 139°49'0 0.0
2017-Jun-13 18:30N 35°29' E 139°49'0 0.0
2017-Jun-13 18:00N 35°29' E 139°49'0 0.0
2017-Jun-13 17:30N 35°29' E 139°49'0 0.1
2017-Jun-13 16:57N 35°29' E 139°49'0 0.0
2017-Jun-13 16:15N 35°29' E 139°49'0 0.0
2017-Jun-13 15:54N 35°29' E 139°49'0 0.0
2017-Jun-13 15:30N 35°29' E 139°49'2 4.7
2017-Jun-13 15:00N 35°27' E 139°48'611.6
2017-Jun-13 14:30N 35°21' E 139°45'3 0.1
2017-Jun-12 04:37N 35°23' E 139°42'112.2
2017-Jun-12 04:30N 35°24' E 139°43'612.6
2017-Jun-12 04:00N 35°29' E 139°47'2 4.9
2017-Jun-12 03:30N 35°30' E 139°45'0 0.0
2017-Jun-12 02:55N 35°30' E 139°45'0 0.0
2017-Jun-12 02:25N 35°30' E 139°45'0 0.0
2017-Jun-12 01:58N 35°30' E 139°45'0 0.0
2017-Jun-12 01:28N 35°30' E 139°45'0 0.0
2017-Jun-12 00:58N 35°30' E 139°45'0 0.0
2017-Jun-12 00:28N 35°30' E 139°45'0 0.0
2017-Jun-11 23:58N 35°30' E 139°45'0 0.0
2017-Jun-11 23:31N 35°30' E 139°45'1 2.4
2017-Jun-11 23:01N 35°30' E 139°46'2 3.5
2017-Jun-11 22:31N 35°29' E 139°46'0 0.0
2017-Jun-11 21:58N 35°29' E 139°46'0 0.0
2017-Jun-11 21:28N 35°29' E 139°46'0 0.0
2017-Jun-11 20:58N 35°29' E 139°46'0 0.0
2017-Jun-11 20:28N 35°29' E 139°46'0 0.0
2017-Jun-11 19:58N 35°29' E 139°46'0 0.0
2017-Jun-11 19:28N 35°29' E 139°46'0 0.0
2017-Jun-11 18:55N 35°29' E 139°46'0 0.0
2017-Jun-11 18:28N 35°29' E 139°46'0 0.0
2017-Jun-11 17:58N 35°29' E 139°46'0 0.0
2017-Jun-11 17:25N 35°29' E 139°46'0 0.0
2017-Jun-11 16:55N 35°29' E 139°46'0 0.0
2017-Jun-11 16:28N 35°29' E 139°46'0 0.0
2017-Jun-11 15:58N 35°29' E 139°46'0 0.1
2017-Jun-11 15:28N 35°29' E 139°46'0 0.0
2017-Jun-11 14:58N 35°29' E 139°46'0 0.0
2017-Jun-11 14:28N 35°29' E 139°46'0 0.0
2017-Jun-11 13:28N 35°29' E 139°46'0 0.1
2017-Jun-11 12:58N 35°29' E 139°46'0 0.0
2017-Jun-11 12:28N 35°29' E 139°46'0 0.1
2017-Jun-11 11:58N 35°29' E 139°46'0 0.1
2017-Jun-11 11:22N 35°29' E 139°46'0 0.0
2017-Jun-11 10:55N 35°29' E 139°46'0 0.0
2017-Jun-11 10:28N 35°29' E 139°46'0 0.0
2017-Jun-11 09:55N 35°29' E 139°46'0 0.1
2017-Jun-11 09:28N 35°29' E 139°46'0 0.0
2017-Jun-11 08:58N 35°29' E 139°46'0 0.0
2017-Jun-11 08:25N 35°29' E 139°46'0 0.0
2017-Jun-11 07:58N 35°29' E 139°46'0 0.0
2017-Jun-11 07:28N 35°29' E 139°46'0 0.1
2017-Jun-11 06:58N 35°29' E 139°46'0 0.0
2017-Jun-11 06:28N 35°29' E 139°46'0 0.0
2017-Jun-11 05:58N 35°29' E 139°46'0 0.1
2017-Jun-11 05:28N 35°29' E 139°46'0 0.0
2017-Jun-11 04:58N 35°29' E 139°46'0 0.0
2017-Jun-11 04:28N 35°29' E 139°46'0 0.0
2017-Jun-11 03:58N 35°29' E 139°46'0 0.0
2017-Jun-11 03:28N 35°29' E 139°46'0 0.0
2017-Jun-11 02:58N 35°29' E 139°46'0 0.0
2017-Jun-11 02:28N 35°29' E 139°46'0 0.1
2017-Jun-11 01:55N 35°29' E 139°46'0 0.0
2017-Jun-11 01:28N 35°29' E 139°46'0 0.0
2017-Jun-11 00:58N 35°29' E 139°46'0 0.0
2017-Jun-11 00:28N 35°29' E 139°46'0 0.0
2017-Jun-10 23:58N 35°29' E 139°46'0 0.0
2017-Jun-10 23:28N 35°29' E 139°46'0 0.0
2017-Jun-10 22:58N 35°29' E 139°46'0 0.0
2017-Jun-10 22:28N 35°29' E 139°46'0 0.0
2017-Jun-10 21:58N 35°29' E 139°46'0 0.0
2017-Jun-10 21:28N 35°29' E 139°46'0 0.0
2017-Jun-10 20:58N 35°29' E 139°46'0 0.0
2017-Jun-10 20:28N 35°29' E 139°46'0 0.0
2017-Jun-10 19:58N 35°29' E 139°46'0 0.0
2017-Jun-10 19:28N 35°29' E 139°46'0 0.0
2017-Jun-10 18:58N 35°29' E 139°46'0 0.0
2017-Jun-10 18:28N 35°29' E 139°46'0 0.1
2017-Jun-10 17:52N 35°29' E 139°46'0 0.0
2017-Jun-10 17:22N 35°29' E 139°46'0 0.2
2017-Jun-10 17:00N 35°29' E 139°46'4 8.1
2017-Jun-10 16:30N 35°25' E 139°46'612.5
2017-Jun-10 16:00N 35°19' E 139°44'612.6
2017-Jun-10 15:30N 35°13' E 139°47'612.4
2017-Jun-10 15:00N 35°07' E 139°45'612.3
2017-Jun-10 14:30N 35°01' E 139°44'21 0.7
2017-Jun-09 07:42N 35°22' E 139°42'211.8
2017-Jun-09 07:30N 35°24' E 139°43'611.7
2017-Jun-09 07:00N 35°29' E 139°48'3 5.6
2017-Jun-09 06:30N 35°30' E 139°45'0 0.0
2017-Jun-09 05:51N 35°30' E 139°45'0 0.0
2017-Jun-09 05:21N 35°30' E 139°45'0 0.0
2017-Jun-09 04:57N 35°30' E 139°45'  
Track history (hours):
 
Tides and Currents Weather Stations Pressure Air Temp Water Temp Dewpoint Dewpoint Depression Visibility Wind Speed Wind Dir Waves Ship Positions

No.3tokuyomaru

Last reported at 2017-Jun-19 01:24 UTC. Time now 2017-Jun-25 00:23 UTC.
Position N 35°17' E 139°45'.

Length 67 m; draft 4 m.

Type: Tanker. MMSI: 431002151.

Date/timePositionNaut miles runAvg speedWind from/ knotsBaromVisibWave heightAir tempDewpointWater temp
2017-Jun-19 01:24N 35°17' E 139°45'512.5
2017-Jun-19 01:00N 35°22' E 139°42'612.0
2017-Jun-19 00:30N 35°27' E 139°47'3 6.5
2017-Jun-19 00:00N 35°29' E 139°49'0 0.1
2017-Jun-18 23:28N 35°29' E 139°49'0 0.0
2017-Jun-18 22:58N 35°29' E 139°49'0 0.0
2017-Jun-18 22:28N 35°29' E 139°49'0 0.1
2017-Jun-18 21:58N 35°29' E 139°49'0 0.1
2017-Jun-18 21:28N 35°29' E 139°49'0 0.0
2017-Jun-18 20:58N 35°29' E 139°49'0 0.0
2017-Jun-18 20:25N 35°29' E 139°49'0 0.0
2017-Jun-18 19:55N 35°29' E 139°49'0 0.0
2017-Jun-18 19:22N 35°29' E 139°49'0 0.0
2017-Jun-18 18:58N 35°29' E 139°49'0 0.0
2017-Jun-18 18:28N 35°29' E 139°49'0 0.0
2017-Jun-18 17:58N 35°29' E 139°49'0 0.0
2017-Jun-18 17:28N 35°29' E 139°49'0 0.0
2017-Jun-18 16:58N 35°29' E 139°49'0 0.0
2017-Jun-18 16:28N 35°29' E 139°49'0 0.0
2017-Jun-18 15:58N 35°29' E 139°49'0 0.0
2017-Jun-18 15:28N 35°29' E 139°49'0 0.0
2017-Jun-18 14:58N 35°29' E 139°49'0 0.0
2017-Jun-18 13:58N 35°29' E 139°49'0 0.0
2017-Jun-18 13:25N 35°29' E 139°49'0 0.0
2017-Jun-18 12:55N 35°29' E 139°49'0 0.0
2017-Jun-18 12:28N 35°29' E 139°49'0 0.0
2017-Jun-18 11:46N 35°29' E 139°49'0 0.0
2017-Jun-18 11:28N 35°29' E 139°49'0 0.1
2017-Jun-18 10:56N 35°29' E 139°49'3 7.1
2017-Jun-18 10:30N 35°30' E 139°53'3 0.4
2017-Jun-18 03:13N 35°31' E 139°56'310.4
2017-Jun-18 02:53N 35°30' E 139°52'2 5.5
2017-Jun-18 02:29N 35°29' E 139°49'0 0.0
2017-Jun-18 01:59N 35°29' E 139°49'0 0.0
2017-Jun-18 01:29N 35°29' E 139°49'0 0.0
2017-Jun-18 00:59N 35°29' E 139°49'0 0.0
2017-Jun-18 00:29N 35°29' E 139°49'0 0.0
2017-Jun-17 23:59N 35°29' E 139°49'0 0.0
2017-Jun-17 23:29N 35°29' E 139°49'0 0.0
2017-Jun-17 22:59N 35°29' E 139°49'0 0.0
2017-Jun-17 22:29N 35°29' E 139°49'0 0.0
2017-Jun-17 21:59N 35°29' E 139°49'0 0.0
2017-Jun-17 21:29N 35°29' E 139°49'0 0.0
2017-Jun-17 20:59N 35°29' E 139°49'0 0.0
2017-Jun-17 20:29N 35°29' E 139°49'0 0.0
2017-Jun-17 19:59N 35°29' E 139°49'0 0.0
2017-Jun-17 19:29N 35°29' E 139°49'0 0.0
2017-Jun-17 18:59N 35°29' E 139°49'0 0.0
2017-Jun-17 18:29N 35°29' E 139°49'0 0.0
2017-Jun-17 17:56N 35°29' E 139°49'0 0.0
2017-Jun-17 17:29N 35°29' E 139°49'0 0.0
2017-Jun-17 16:59N 35°29' E 139°49'0 0.0
2017-Jun-17 16:29N 35°29' E 139°49'0 0.0
2017-Jun-17 15:59N 35°29' E 139°49'0 0.0
2017-Jun-17 15:29N 35°29' E 139°49'0 0.0
2017-Jun-17 14:59N 35°29' E 139°49'0 0.0
2017-Jun-17 14:29N 35°29' E 139°49'5 4.7
2017-Jun-17 13:31N 35°25' E 139°47'612.3
2017-Jun-17 13:01N 35°19' E 139°44'612.1
2017-Jun-17 12:30N 35°14' E 139°47'24510.2
2017-Jun-16 12:28N 34°09' E 134°59'1813.4
2017-Jun-16 11:08N 34°26' E 135°01'212.5
2017-Jun-16 11:00N 34°28' E 135°01'612.6
2017-Jun-16 10:30N 34°34' E 135°03'711.4
2017-Jun-16 09:56N 34°37' E 134°55'3 0.1
2017-Jun-15 06:04N 34°38' E 134°58'211.0
2017-Jun-15 05:51N 34°37' E 135°01'411.5
2017-Jun-15 05:29N 34°35' E 135°05'234 8.9
2017-Jun-14 03:07N 35°13' E 139°46'412.8
2017-Jun-14 02:50N 35°17' E 139°45'413.4
2017-Jun-14 02:30N 35°20' E 139°42'612.8
2017-Jun-14 02:00N 35°26' E 139°45'5 9.2
2017-Jun-14 01:30N 35°31' E 139°46'0 0.0
2017-Jun-13 22:16N 35°31' E 139°46'0 1.1
2017-Jun-13 22:01N 35°31' E 139°47'3 5.5
2017-Jun-13 21:30N 35°29' E 139°49'0 0.0
2017-Jun-13 20:57N 35°29' E 139°49'0 0.0
2017-Jun-13 20:30N 35°29' E 139°49'0 0.0
2017-Jun-13 20:00N 35°29' E 139°49'0 0.0
2017-Jun-13 19:30N 35°29' E 139°49'0 0.0
2017-Jun-13 18:57N 35°29' E 139°49'0 0.0
2017-Jun-13 18:30N 35°29' E 139°49'0 0.0
2017-Jun-13 18:00N 35°29' E 139°49'0 0.0
2017-Jun-13 17:30N 35°29' E 139°49'0 0.1
2017-Jun-13 16:57N 35°29' E 139°49'0 0.0
2017-Jun-13 16:15N 35°29' E 139°49'0 0.0
2017-Jun-13 15:54N 35°29' E 139°49'0 0.0
2017-Jun-13 15:30N 35°29' E 139°49'2 4.7
2017-Jun-13 15:00N 35°27' E 139°48'611.6
2017-Jun-13 14:30N 35°21' E 139°45'3 0.1
2017-Jun-12 04:37N 35°23' E 139°42'112.2
2017-Jun-12 04:30N 35°24' E 139°43'612.6
2017-Jun-12 04:00N 35°29' E 139°47'2 4.9
2017-Jun-12 03:30N 35°30' E 139°45'0 0.0
2017-Jun-12 02:55N 35°30' E 139°45'0 0.0
2017-Jun-12 02:25N 35°30' E 139°45'0 0.0
2017-Jun-12 01:58N 35°30' E 139°45'0 0.0
2017-Jun-12 01:28N 35°30' E 139°45'0 0.0
2017-Jun-12 00:58N 35°30' E 139°45'0 0.0
2017-Jun-12 00:28N 35°30' E 139°45'0 0.0
2017-Jun-11 23:58N 35°30' E 139°45'0 0.0
2017-Jun-11 23:31N 35°30' E 139°45'1 2.4
2017-Jun-11 23:01N 35°30' E 139°46'2 3.5
2017-Jun-11 22:31N 35°29' E 139°46'0 0.0
2017-Jun-11 21:58N 35°29' E 139°46'0 0.0
2017-Jun-11 21:28N 35°29' E 139°46'0 0.0
2017-Jun-11 20:58N 35°29' E 139°46'0 0.0
2017-Jun-11 20:28N 35°29' E 139°46'0 0.0
2017-Jun-11 19:58N 35°29' E 139°46'0 0.0
2017-Jun-11 19:28N 35°29' E 139°46'0 0.0
2017-Jun-11 18:55N 35°29' E 139°46'0 0.0
2017-Jun-11 18:28N 35°29' E 139°46'0 0.0
2017-Jun-11 17:58N 35°29' E 139°46'0 0.0
2017-Jun-11 17:25N 35°29' E 139°46'0 0.0
2017-Jun-11 16:55N 35°29' E 139°46'0 0.0
2017-Jun-11 16:28N 35°29' E 139°46'0 0.0
2017-Jun-11 15:58N 35°29' E 139°46'0 0.1
2017-Jun-11 15:28N 35°29' E 139°46'0 0.0
2017-Jun-11 14:58N 35°29' E 139°46'0 0.0
2017-Jun-11 14:28N 35°29' E 139°46'0 0.0
2017-Jun-11 13:28N 35°29' E 139°46'0 0.1
2017-Jun-11 12:58N 35°29' E 139°46'0 0.0
2017-Jun-11 12:28N 35°29' E 139°46'0 0.1
2017-Jun-11 11:58N 35°29' E 139°46'0 0.1
2017-Jun-11 11:22N 35°29' E 139°46'0 0.0
2017-Jun-11 10:55N 35°29' E 139°46'0 0.0
2017-Jun-11 10:28N 35°29' E 139°46'0 0.0
2017-Jun-11 09:55N 35°29' E 139°46'0 0.1
2017-Jun-11 09:28N 35°29' E 139°46'0 0.0
2017-Jun-11 08:58N 35°29' E 139°46'0 0.0
2017-Jun-11 08:25N 35°29' E 139°46'0 0.0
2017-Jun-11 07:58N 35°29' E 139°46'0 0.0
2017-Jun-11 07:28N 35°29' E 139°46'0 0.1
2017-Jun-11 06:58N 35°29' E 139°46'0 0.0
2017-Jun-11 06:28N 35°29' E 139°46'0 0.0
2017-Jun-11 05:58N 35°29' E 139°46'0 0.1
2017-Jun-11 05:28N 35°29' E 139°46'0 0.0
2017-Jun-11 04:58N 35°29' E 139°46'0 0.0
2017-Jun-11 04:28N 35°29' E 139°46'0 0.0
2017-Jun-11 03:58N 35°29' E 139°46'0 0.0
2017-Jun-11 03:28N 35°29' E 139°46'0 0.0
2017-Jun-11 02:58N 35°29' E 139°46'0 0.0
2017-Jun-11 02:28N 35°29' E 139°46'0 0.1
2017-Jun-11 01:55N 35°29' E 139°46'0 0.0
2017-Jun-11 01:28N 35°29' E 139°46'0 0.0
2017-Jun-11 00:58N 35°29' E 139°46'0 0.0
2017-Jun-11 00:28N 35°29' E 139°46'0 0.0
2017-Jun-10 23:58N 35°29' E 139°46'0 0.0
2017-Jun-10 23:28N 35°29' E 139°46'0 0.0
2017-Jun-10 22:58N 35°29' E 139°46'0 0.0
2017-Jun-10 22:28N 35°29' E 139°46'0 0.0
2017-Jun-10 21:58N 35°29' E 139°46'0 0.0
2017-Jun-10 21:28N 35°29' E 139°46'0 0.0
2017-Jun-10 20:58N 35°29' E 139°46'0 0.0
2017-Jun-10 20:28N 35°29' E 139°46'0 0.0
2017-Jun-10 19:58N 35°29' E 139°46'0 0.0
2017-Jun-10 19:28N 35°29' E 139°46'0 0.0
2017-Jun-10 18:58N 35°29' E 139°46'0 0.0
2017-Jun-10 18:28N 35°29' E 139°46'0 0.1
2017-Jun-10 17:52N 35°29' E 139°46'0 0.0
2017-Jun-10 17:22N 35°29' E 139°46'0 0.2
2017-Jun-10 17:00N 35°29' E 139°46'4 8.1
2017-Jun-10 16:30N 35°25' E 139°46'612.5
2017-Jun-10 16:00N 35°19' E 139°44'612.6
2017-Jun-10 15:30N 35°13' E 139°47'612.4
2017-Jun-10 15:00N 35°07' E 139°45'612.3
2017-Jun-10 14:30N 35°01' E 139°44'21 0.7
2017-Jun-09 07:42N 35°22' E 139°42'211.8
2017-Jun-09 07:30N 35°24' E 139°43'611.7
2017-Jun-09 07:00N 35°29' E 139°48'3 5.6
2017-Jun-09 06:30N 35°30' E 139°45'0 0.0
2017-Jun-09 05:51N 35°30' E 139°45'0 0.0
2017-Jun-09 05:21N 35°30' E 139°45'0 0.0
2017-Jun-09 04:57N 35°30' E 139°45'  

Dump ship's entire track history